sensor_id;sensor_type;location;lat;lon;timestamp;P1;durP1;ratioP1;P2;durP2;ratioP2
673;SDS011;319;48.764;9.174;2022-07-22T00:01:51;10.87;;;10.57;;
673;SDS011;319;48.764;9.174;2022-07-22T00:04:18;0.70;;;0.70;;
673;SDS011;319;48.764;9.174;2022-07-22T00:06:44;5.80;;;5.70;;
673;SDS011;319;48.764;9.174;2022-07-22T00:09:13;10.90;;;10.60;;
673;SDS011;319;48.764;9.174;2022-07-22T00:11:39;11.20;;;10.90;;
673;SDS011;319;48.764;9.174;2022-07-22T00:14:06;10.20;;;9.90;;
673;SDS011;319;48.764;9.174;2022-07-22T00:16:33;11.00;;;10.70;;
673;SDS011;319;48.764;9.174;2022-07-22T00:19:00;10.90;;;10.60;;
673;SDS011;319;48.764;9.174;2022-07-22T00:21:27;11.00;;;10.70;;
673;SDS011;319;48.764;9.174;2022-07-22T00:23:53;10.30;;;10.00;;
673;SDS011;319;48.764;9.174;2022-07-22T00:26:21;10.67;;;10.37;;
673;SDS011;319;48.764;9.174;2022-07-22T00:28:48;11.00;;;10.70;;
673;SDS011;319;48.764;9.174;2022-07-22T00:31:15;11.50;;;11.20;;
673;SDS011;319;48.764;9.174;2022-07-22T00:33:42;11.00;;;10.70;;
673;SDS011;319;48.764;9.174;2022-07-22T00:36:09;11.40;;;11.10;;
673;SDS011;319;48.764;9.174;2022-07-22T00:38:36;11.00;;;10.70;;
673;SDS011;319;48.764;9.174;2022-07-22T00:41:02;10.20;;;9.90;;
673;SDS011;319;48.764;9.174;2022-07-22T00:46:16;10.83;;;10.53;;
673;SDS011;319;48.764;9.174;2022-07-22T00:48:43;9.90;;;9.70;;
673;SDS011;319;48.764;9.174;2022-07-22T00:51:10;9.97;;;9.70;;
673;SDS011;319;48.764;9.174;2022-07-22T00:53:37;9.90;;;9.70;;
673;SDS011;319;48.764;9.174;2022-07-22T00:56:04;8.77;;;8.57;;
673;SDS011;319;48.764;9.174;2022-07-22T00:58:31;9.50;;;9.30;;
673;SDS011;319;48.764;9.174;2022-07-22T01:01:00;10.67;;;10.37;;
673;SDS011;319;48.764;9.174;2022-07-22T01:03:26;8.50;;;8.30;;
673;SDS011;319;48.764;9.174;2022-07-22T01:05:53;9.23;;;9.03;;
673;SDS011;319;48.764;9.174;2022-07-22T01:08:20;10.40;;;10.10;;
673;SDS011;319;48.764;9.174;2022-07-22T01:10:47;9.67;;;9.47;;
673;SDS011;319;48.764;9.174;2022-07-22T01:13:14;10.03;;;9.73;;
673;SDS011;319;48.764;9.174;2022-07-22T01:15:41;9.50;;;9.30;;
673;SDS011;319;48.764;9.174;2022-07-22T01:18:09;9.40;;;9.20;;
673;SDS011;319;48.764;9.174;2022-07-22T01:20:37;9.83;;;9.63;;
673;SDS011;319;48.764;9.174;2022-07-22T01:23:04;0.97;;;0.97;;
673;SDS011;319;48.764;9.174;2022-07-22T01:25:31;0.80;;;0.80;;
673;SDS011;319;48.764;9.174;2022-07-22T01:27:57;0.70;;;0.70;;
673;SDS011;319;48.764;9.174;2022-07-22T01:30:24;0.70;;;0.70;;
673;SDS011;319;48.764;9.174;2022-07-22T01:32:51;0.80;;;0.80;;
673;SDS011;319;48.764;9.174;2022-07-22T01:35:18;0.70;;;0.70;;
673;SDS011;319;48.764;9.174;2022-07-22T01:37:46;0.70;;;0.70;;
673;SDS011;319;48.764;9.174;2022-07-22T01:40:13;0.80;;;0.80;;
673;SDS011;319;48.764;9.174;2022-07-22T01:42:39;0.67;;;0.67;;
673;SDS011;319;48.764;9.174;2022-07-22T01:45:07;0.73;;;0.73;;
673;SDS011;319;48.764;9.174;2022-07-22T01:47:34;9.63;;;9.43;;
673;SDS011;319;48.764;9.174;2022-07-22T01:50:01;8.60;;;8.40;;
673;SDS011;319;48.764;9.174;2022-07-22T01:52:29;7.90;;;7.70;;
673;SDS011;319;48.764;9.174;2022-07-22T01:54:57;4.23;;;4.13;;
673;SDS011;319;48.764;9.174;2022-07-22T01:57:23;3.63;;;3.53;;
673;SDS011;319;48.764;9.174;2022-07-22T01:59:50;3.50;;;3.40;;
673;SDS011;319;48.764;9.174;2022-07-22T02:02:17;2.93;;;2.83;;
673;SDS011;319;48.764;9.174;2022-07-22T02:04:44;0.80;;;0.80;;
673;SDS011;319;48.764;9.174;2022-07-22T02:07:11;0.80;;;0.80;;
673;SDS011;319;48.764;9.174;2022-07-22T02:09:37;0.80;;;0.80;;
673;SDS011;319;48.764;9.174;2022-07-22T02:12:06;0.80;;;0.80;;
673;SDS011;319;48.764;9.174;2022-07-22T02:14:33;0.80;;;0.80;;
673;SDS011;319;48.764;9.174;2022-07-22T02:17:01;0.73;;;0.73;;
673;SDS011;319;48.764;9.174;2022-07-22T02:19:28;0.80;;;0.80;;
673;SDS011;319;48.764;9.174;2022-07-22T02:21:55;0.70;;;0.70;;
673;SDS011;319;48.764;9.174;2022-07-22T02:24:21;0.80;;;0.80;;
673;SDS011;319;48.764;9.174;2022-07-22T02:26:48;0.80;;;0.80;;
673;SDS011;319;48.764;9.174;2022-07-22T02:29:17;1.20;;;1.20;;
673;SDS011;319;48.764;9.174;2022-07-22T02:31:43;2.50;;;2.50;;
673;SDS011;319;48.764;9.174;2022-07-22T02:34:10;2.73;;;2.63;;
673;SDS011;319;48.764;9.174;2022-07-22T02:36:37;2.70;;;2.63;;
673;SDS011;319;48.764;9.174;2022-07-22T02:39:05;2.80;;;2.70;;
673;SDS011;319;48.764;9.174;2022-07-22T02:41:31;2.50;;;2.50;;
673;SDS011;319;48.764;9.174;2022-07-22T02:43:58;2.53;;;2.53;;
673;SDS011;319;48.764;9.174;2022-07-22T02:46:27;2.50;;;2.50;;
673;SDS011;319;48.764;9.174;2022-07-22T02:48:54;2.90;;;2.80;;
673;SDS011;319;48.764;9.174;2022-07-22T02:51:21;2.63;;;2.63;;
673;SDS011;319;48.764;9.174;2022-07-22T02:53:48;2.30;;;2.30;;
673;SDS011;319;48.764;9.174;2022-07-22T02:56:15;2.30;;;2.30;;
673;SDS011;319;48.764;9.174;2022-07-22T02:58:42;2.60;;;2.60;;
673;SDS011;319;48.764;9.174;2022-07-22T03:01:10;2.70;;;2.60;;
673;SDS011;319;48.764;9.174;2022-07-22T03:03:38;2.70;;;2.60;;
673;SDS011;319;48.764;9.174;2022-07-22T03:06:05;2.03;;;2.03;;
673;SDS011;319;48.764;9.174;2022-07-22T03:08:33;3.10;;;3.00;;
673;SDS011;319;48.764;9.174;2022-07-22T03:10:59;2.07;;;2.07;;
673;SDS011;319;48.764;9.174;2022-07-22T03:13:26;1.93;;;1.93;;
673;SDS011;319;48.764;9.174;2022-07-22T03:15:53;2.30;;;2.30;;
673;SDS011;319;48.764;9.174;2022-07-22T03:18:20;2.17;;;2.17;;
673;SDS011;319;48.764;9.174;2022-07-22T03:20:49;1.53;;;1.53;;
673;SDS011;319;48.764;9.174;2022-07-22T03:23:16;6.20;;;6.10;;
673;SDS011;319;48.764;9.174;2022-07-22T03:25:42;7.60;;;7.40;;
673;SDS011;319;48.764;9.174;2022-07-22T03:28:09;7.80;;;7.60;;
673;SDS011;319;48.764;9.174;2022-07-22T03:30:36;7.43;;;7.23;;
673;SDS011;319;48.764;9.174;2022-07-22T03:33:03;5.67;;;5.57;;
673;SDS011;319;48.764;9.174;2022-07-22T03:35:30;7.03;;;6.83;;
673;SDS011;319;48.764;9.174;2022-07-22T03:37:58;5.80;;;5.70;;
673;SDS011;319;48.764;9.174;2022-07-22T03:40:27;6.77;;;6.57;;
673;SDS011;319;48.764;9.174;2022-07-22T03:42:54;6.93;;;6.73;;
673;SDS011;319;48.764;9.174;2022-07-22T03:45:20;6.23;;;6.10;;
673;SDS011;319;48.764;9.174;2022-07-22T03:47:47;3.60;;;3.50;;
673;SDS011;319;48.764;9.174;2022-07-22T03:50:14;0.90;;;0.90;;
673;SDS011;319;48.764;9.174;2022-07-22T03:52:41;0.70;;;0.70;;
673;SDS011;319;48.764;9.174;2022-07-22T03:55:10;0.80;;;0.80;;
673;SDS011;319;48.764;9.174;2022-07-22T03:57:37;0.80;;;0.80;;
673;SDS011;319;48.764;9.174;2022-07-22T04:00:04;0.70;;;0.70;;
673;SDS011;319;48.764;9.174;2022-07-22T04:02:32;0.80;;;0.80;;
673;SDS011;319;48.764;9.174;2022-07-22T04:04:58;0.80;;;0.80;;
673;SDS011;319;48.764;9.174;2022-07-22T04:07:26;0.73;;;0.73;;
673;SDS011;319;48.764;9.174;2022-07-22T04:09:53;0.80;;;0.80;;
673;SDS011;319;48.764;9.174;2022-07-22T04:12:31;0.80;;;0.80;;
673;SDS011;319;48.764;9.174;2022-07-22T04:14:58;0.80;;;0.80;;
673;SDS011;319;48.764;9.174;2022-07-22T04:17:25;0.80;;;0.80;;
673;SDS011;319;48.764;9.174;2022-07-22T04:19:52;0.70;;;0.70;;
673;SDS011;319;48.764;9.174;2022-07-22T04:22:19;0.80;;;0.80;;
673;SDS011;319;48.764;9.174;2022-07-22T04:24:46;0.80;;;0.80;;
673;SDS011;319;48.764;9.174;2022-07-22T04:27:12;0.80;;;0.80;;
673;SDS011;319;48.764;9.174;2022-07-22T04:29:40;0.80;;;0.80;;
673;SDS011;319;48.764;9.174;2022-07-22T04:32:07;0.67;;;0.67;;
673;SDS011;319;48.764;9.174;2022-07-22T04:34:34;0.80;;;0.80;;
673;SDS011;319;48.764;9.174;2022-07-22T04:37:01;0.70;;;0.70;;
673;SDS011;319;48.764;9.174;2022-07-22T04:39:28;0.70;;;0.70;;
673;SDS011;319;48.764;9.174;2022-07-22T04:41:55;0.80;;;0.80;;
673;SDS011;319;48.764;9.174;2022-07-22T04:44:22;0.80;;;0.80;;
673;SDS011;319;48.764;9.174;2022-07-22T04:46:50;0.80;;;0.80;;
673;SDS011;319;48.764;9.174;2022-07-22T04:49:17;0.80;;;0.80;;
673;SDS011;319;48.764;9.174;2022-07-22T04:51:44;0.70;;;0.70;;
673;SDS011;319;48.764;9.174;2022-07-22T04:54:11;0.80;;;0.80;;
673;SDS011;319;48.764;9.174;2022-07-22T04:56:38;0.80;;;0.80;;
673;SDS011;319;48.764;9.174;2022-07-22T04:59:05;0.70;;;0.70;;
673;SDS011;319;48.764;9.174;2022-07-22T05:01:32;0.80;;;0.80;;
673;SDS011;319;48.764;9.174;2022-07-22T05:04:00;0.70;;;0.70;;
673;SDS011;319;48.764;9.174;2022-07-22T05:06:27;0.80;;;0.80;;
673;SDS011;319;48.764;9.174;2022-07-22T05:08:53;2.67;;;2.57;;
673;SDS011;319;48.764;9.174;2022-07-22T05:11:20;1.90;;;1.90;;
673;SDS011;319;48.764;9.174;2022-07-22T05:13:47;2.50;;;2.50;;
673;SDS011;319;48.764;9.174;2022-07-22T05:16:14;2.00;;;2.00;;
673;SDS011;319;48.764;9.174;2022-07-22T05:18:41;2.10;;;2.10;;
673;SDS011;319;48.764;9.174;2022-07-22T05:21:09;1.60;;;1.60;;
673;SDS011;319;48.764;9.174;2022-07-22T05:23:36;1.80;;;1.80;;
673;SDS011;319;48.764;9.174;2022-07-22T05:26:04;1.60;;;1.60;;
673;SDS011;319;48.764;9.174;2022-07-22T05:28:31;0.90;;;0.90;;
673;SDS011;319;48.764;9.174;2022-07-22T05:30:58;0.90;;;0.90;;
673;SDS011;319;48.764;9.174;2022-07-22T05:33:25;1.10;;;1.10;;
673;SDS011;319;48.764;9.174;2022-07-22T05:35:52;1.13;;;1.13;;
673;SDS011;319;48.764;9.174;2022-07-22T05:38:20;1.10;;;1.10;;
673;SDS011;319;48.764;9.174;2022-07-22T05:40:47;1.27;;;1.27;;
673;SDS011;319;48.764;9.174;2022-07-22T05:43:14;5.40;;;5.30;;
673;SDS011;319;48.764;9.174;2022-07-22T05:45:41;4.63;;;4.53;;
673;SDS011;319;48.764;9.174;2022-07-22T05:48:08;5.30;;;5.20;;
673;SDS011;319;48.764;9.174;2022-07-22T05:50:35;5.73;;;5.63;;
673;SDS011;319;48.764;9.174;2022-07-22T05:53:02;4.97;;;4.87;;
673;SDS011;319;48.764;9.174;2022-07-22T05:55:31;4.07;;;3.97;;
673;SDS011;319;48.764;9.174;2022-07-22T05:57:57;3.17;;;3.07;;
673;SDS011;319;48.764;9.174;2022-07-22T06:00:24;3.80;;;3.70;;
673;SDS011;319;48.764;9.174;2022-07-22T06:02:51;3.70;;;3.60;;
673;SDS011;319;48.764;9.174;2022-07-22T06:05:18;4.23;;;4.13;;
673;SDS011;319;48.764;9.174;2022-07-22T06:07:46;4.20;;;4.10;;
673;SDS011;319;48.764;9.174;2022-07-22T06:10:12;3.87;;;3.77;;
673;SDS011;319;48.764;9.174;2022-07-22T06:12:41;2.93;;;2.83;;
673;SDS011;319;48.764;9.174;2022-07-22T06:15:08;0.70;;;0.70;;
673;SDS011;319;48.764;9.174;2022-07-22T06:17:35;0.80;;;0.80;;
673;SDS011;319;48.764;9.174;2022-07-22T06:20:02;0.80;;;0.80;;
673;SDS011;319;48.764;9.174;2022-07-22T06:22:29;4.70;;;4.60;;
673;SDS011;319;48.764;9.174;2022-07-22T06:24:56;7.80;;;7.60;;
673;SDS011;319;48.764;9.174;2022-07-22T06:27:23;10.03;;;9.73;;
673;SDS011;319;48.764;9.174;2022-07-22T06:29:51;7.27;;;7.07;;
673;SDS011;319;48.764;9.174;2022-07-22T06:32:18;9.50;;;9.30;;
673;SDS011;319;48.764;9.174;2022-07-22T06:34:45;8.90;;;8.70;;
673;SDS011;319;48.764;9.174;2022-07-22T06:37:12;5.50;;;5.40;;
673;SDS011;319;48.764;9.174;2022-07-22T06:39:38;3.20;;;3.10;;
673;SDS011;319;48.764;9.174;2022-07-22T06:42:05;1.37;;;1.37;;
673;SDS011;319;48.764;9.174;2022-07-22T06:44:32;6.57;;;6.37;;
673;SDS011;319;48.764;9.174;2022-07-22T06:47:00;6.57;;;6.38;;
673;SDS011;319;48.764;9.174;2022-07-22T06:49:26;1.17;;;1.17;;
673;SDS011;319;48.764;9.174;2022-07-22T06:51:53;3.30;;;3.20;;
673;SDS011;319;48.764;9.174;2022-07-22T06:54:20;1.33;;;1.33;;
673;SDS011;319;48.764;9.174;2022-07-22T06:56:47;0.70;;;0.70;;
673;SDS011;319;48.764;9.174;2022-07-22T06:59:13;4.00;;;3.90;;
673;SDS011;319;48.764;9.174;2022-07-22T07:01:40;2.40;;;2.40;;
673;SDS011;319;48.764;9.174;2022-07-22T07:04:08;0.63;;;0.63;;
673;SDS011;319;48.764;9.174;2022-07-22T07:06:35;0.70;;;0.70;;
673;SDS011;319;48.764;9.174;2022-07-22T07:09:02;0.70;;;0.70;;
673;SDS011;319;48.764;9.174;2022-07-22T07:11:29;0.60;;;0.60;;
673;SDS011;319;48.764;9.174;2022-07-22T07:13:55;0.70;;;0.70;;
673;SDS011;319;48.764;9.174;2022-07-22T07:16:22;0.85;;;0.85;;
673;SDS011;319;48.764;9.174;2022-07-22T07:18:49;0.60;;;0.60;;
673;SDS011;319;48.764;9.174;2022-07-22T07:21:17;0.60;;;0.60;;
673;SDS011;319;48.764;9.174;2022-07-22T07:23:44;0.63;;;0.63;;
673;SDS011;319;48.764;9.174;2022-07-22T07:26:11;0.60;;;0.60;;
673;SDS011;319;48.764;9.174;2022-07-22T07:28:38;0.60;;;0.60;;
673;SDS011;319;48.764;9.174;2022-07-22T07:31:05;1.98;;;1.98;;
673;SDS011;319;48.764;9.174;2022-07-22T07:33:32;2.20;;;2.20;;
673;SDS011;319;48.764;9.174;2022-07-22T07:36:00;3.70;;;3.60;;
673;SDS011;319;48.764;9.174;2022-07-22T07:38:28;5.60;;;5.50;;
673;SDS011;319;48.764;9.174;2022-07-22T07:40:55;6.32;;;6.15;;
673;SDS011;319;48.764;9.174;2022-07-22T07:43:22;6.88;;;6.68;;
673;SDS011;319;48.764;9.174;2022-07-22T07:45:49;6.63;;;6.43;;
673;SDS011;319;48.764;9.174;2022-07-22T07:48:16;0.65;;;0.65;;
673;SDS011;319;48.764;9.174;2022-07-22T07:50:42;0.60;;;0.60;;
673;SDS011;319;48.764;9.174;2022-07-22T07:53:12;0.70;;;0.70;;
673;SDS011;319;48.764;9.174;2022-07-22T07:55:41;0.60;;;0.60;;
673;SDS011;319;48.764;9.174;2022-07-22T07:58:08;0.60;;;0.60;;
673;SDS011;319;48.764;9.174;2022-07-22T08:00:35;0.63;;;0.63;;
673;SDS011;319;48.764;9.174;2022-07-22T08:03:03;0.60;;;0.60;;
673;SDS011;319;48.764;9.174;2022-07-22T08:05:31;0.70;;;0.70;;
673;SDS011;319;48.764;9.174;2022-07-22T08:07:58;0.60;;;0.60;;
673;SDS011;319;48.764;9.174;2022-07-22T08:10:25;0.65;;;0.65;;
673;SDS011;319;48.764;9.174;2022-07-22T08:12:53;0.60;;;0.60;;
673;SDS011;319;48.764;9.174;2022-07-22T08:15:23;0.70;;;0.70;;
673;SDS011;319;48.764;9.174;2022-07-22T08:17:49;0.60;;;0.60;;
673;SDS011;319;48.764;9.174;2022-07-22T08:20:16;0.65;;;0.65;;
673;SDS011;319;48.764;9.174;2022-07-22T08:22:43;0.60;;;0.60;;
673;SDS011;319;48.764;9.174;2022-07-22T08:25:10;0.60;;;0.60;;
673;SDS011;319;48.764;9.174;2022-07-22T08:27:37;0.70;;;0.70;;
673;SDS011;319;48.764;9.174;2022-07-22T08:30:06;0.70;;;0.70;;
673;SDS011;319;48.764;9.174;2022-07-22T08:32:33;0.70;;;0.70;;
673;SDS011;319;48.764;9.174;2022-07-22T08:35:00;0.70;;;0.70;;
673;SDS011;319;48.764;9.174;2022-07-22T08:37:27;0.55;;;0.55;;
673;SDS011;319;48.764;9.174;2022-07-22T08:39:54;0.60;;;0.60;;
673;SDS011;319;48.764;9.174;2022-07-22T08:42:20;0.60;;;0.60;;
673;SDS011;319;48.764;9.174;2022-07-22T08:44:47;0.60;;;0.60;;
673;SDS011;319;48.764;9.174;2022-07-22T08:47:19;0.60;;;0.60;;
673;SDS011;319;48.764;9.174;2022-07-22T08:49:47;0.68;;;0.68;;
673;SDS011;319;48.764;9.174;2022-07-22T08:52:14;0.70;;;0.70;;
673;SDS011;319;48.764;9.174;2022-07-22T08:54:41;0.70;;;0.70;;
673;SDS011;319;48.764;9.174;2022-07-22T08:57:08;0.70;;;0.70;;
673;SDS011;319;48.764;9.174;2022-07-22T08:59:47;0.70;;;0.70;;
673;SDS011;319;48.764;9.174;2022-07-22T09:02:16;0.82;;;0.82;;
673;SDS011;319;48.764;9.174;2022-07-22T09:04:54;0.60;;;0.60;;
673;SDS011;319;48.764;9.174;2022-07-22T09:07:28;0.70;;;0.70;;
673;SDS011;319;48.764;9.174;2022-07-22T09:09:58;0.70;;;0.70;;
673;SDS011;319;48.764;9.174;2022-07-22T09:12:25;0.80;;;0.80;;
673;SDS011;319;48.764;9.174;2022-07-22T09:14:55;0.70;;;0.70;;
673;SDS011;319;48.764;9.174;2022-07-22T09:17:28;0.60;;;0.60;;
673;SDS011;319;48.764;9.174;2022-07-22T09:19:57;0.60;;;0.60;;
673;SDS011;319;48.764;9.174;2022-07-22T09:22:32;0.70;;;0.70;;
673;SDS011;319;48.764;9.174;2022-07-22T09:27:46;9.73;;;9.52;;
673;SDS011;319;48.764;9.174;2022-07-22T09:30:14;10.52;;;10.23;;
673;SDS011;319;48.764;9.174;2022-07-22T09:32:44;11.60;;;11.30;;
673;SDS011;319;48.764;9.174;2022-07-22T09:35:11;6.57;;;6.37;;
673;SDS011;319;48.764;9.174;2022-07-22T09:37:46;12.97;;;12.67;;
673;SDS011;319;48.764;9.174;2022-07-22T09:40:14;10.67;;;10.37;;
673;SDS011;319;48.764;9.174;2022-07-22T09:42:46;11.97;;;11.67;;
673;SDS011;319;48.764;9.174;2022-07-22T09:45:15;12.57;;;12.27;;
673;SDS011;319;48.764;9.174;2022-07-22T09:47:44;11.10;;;10.80;;
673;SDS011;319;48.764;9.174;2022-07-22T09:50:15;9.93;;;9.63;;
673;SDS011;319;48.764;9.174;2022-07-22T09:52:47;12.50;;;12.20;;
673;SDS011;319;48.764;9.174;2022-07-22T09:55:15;3.40;;;3.30;;
673;SDS011;319;48.764;9.174;2022-07-22T09:57:42;0.87;;;0.87;;
673;SDS011;319;48.764;9.174;2022-07-22T10:00:11;8.47;;;8.27;;
673;SDS011;319;48.764;9.174;2022-07-22T10:02:40;9.63;;;9.40;;
673;SDS011;319;48.764;9.174;2022-07-22T10:05:11;8.90;;;8.70;;
673;SDS011;319;48.764;9.174;2022-07-22T10:07:40;1.93;;;1.90;;
673;SDS011;319;48.764;9.174;2022-07-22T10:10:08;11.70;;;11.40;;
673;SDS011;319;48.764;9.174;2022-07-22T10:12:37;12.10;;;11.80;;
673;SDS011;319;48.764;9.174;2022-07-22T10:15:04;10.87;;;10.57;;
673;SDS011;319;48.764;9.174;2022-07-22T10:17:33;10.47;;;10.17;;
673;SDS011;319;48.764;9.174;2022-07-22T10:20:03;11.00;;;10.70;;
673;SDS011;319;48.764;9.174;2022-07-22T10:22:48;11.27;;;10.97;;
673;SDS011;319;48.764;9.174;2022-07-22T10:25:17;12.40;;;12.10;;
673;SDS011;319;48.764;9.174;2022-07-22T10:27:45;8.50;;;8.30;;
673;SDS011;319;48.764;9.174;2022-07-22T10:30:14;1.27;;;1.27;;
673;SDS011;319;48.764;9.174;2022-07-22T10:32:41;0.70;;;0.70;;
673;SDS011;319;48.764;9.174;2022-07-22T10:35:25;0.70;;;0.70;;
673;SDS011;319;48.764;9.174;2022-07-22T10:37:53;0.60;;;0.60;;
673;SDS011;319;48.764;9.174;2022-07-22T10:40:22;0.70;;;0.70;;
673;SDS011;319;48.764;9.174;2022-07-22T10:43:06;0.70;;;0.70;;
673;SDS011;319;48.764;9.174;2022-07-22T10:45:37;0.70;;;0.70;;
673;SDS011;319;48.764;9.174;2022-07-22T10:48:05;0.70;;;0.70;;
673;SDS011;319;48.764;9.174;2022-07-22T10:50:48;0.77;;;0.77;;
673;SDS011;319;48.764;9.174;2022-07-22T10:53:22;0.67;;;0.67;;
673;SDS011;319;48.764;9.174;2022-07-22T10:56:04;0.70;;;0.70;;
673;SDS011;319;48.764;9.174;2022-07-22T10:58:48;0.80;;;0.80;;
673;SDS011;319;48.764;9.174;2022-07-22T11:01:21;0.70;;;0.70;;
673;SDS011;319;48.764;9.174;2022-07-22T11:03:50;0.70;;;0.70;;
673;SDS011;319;48.764;9.174;2022-07-22T11:06:19;0.70;;;0.70;;
673;SDS011;319;48.764;9.174;2022-07-22T11:08:50;0.70;;;0.70;;
673;SDS011;319;48.764;9.174;2022-07-22T11:11:18;0.70;;;0.70;;
673;SDS011;319;48.764;9.174;2022-07-22T11:13:56;0.70;;;0.70;;
673;SDS011;319;48.764;9.174;2022-07-22T11:16:23;0.60;;;0.60;;
673;SDS011;319;48.764;9.174;2022-07-22T11:18:52;0.70;;;0.70;;
673;SDS011;319;48.764;9.174;2022-07-22T11:21:21;0.70;;;0.70;;
673;SDS011;319;48.764;9.174;2022-07-22T11:23:51;0.70;;;0.70;;
673;SDS011;319;48.764;9.174;2022-07-22T11:26:21;0.60;;;0.60;;
673;SDS011;319;48.764;9.174;2022-07-22T11:28:57;0.70;;;0.70;;
673;SDS011;319;48.764;9.174;2022-07-22T11:31:25;8.57;;;8.37;;
673;SDS011;319;48.764;9.174;2022-07-22T11:33:52;8.83;;;8.63;;
673;SDS011;319;48.764;9.174;2022-07-22T11:36:32;8.70;;;8.50;;
673;SDS011;319;48.764;9.174;2022-07-22T11:39:00;8.30;;;8.10;;
673;SDS011;319;48.764;9.174;2022-07-22T11:41:28;3.40;;;3.30;;
673;SDS011;319;48.764;9.174;2022-07-22T11:43:55;0.77;;;0.77;;
673;SDS011;319;48.764;9.174;2022-07-22T11:46:22;2.87;;;2.77;;
673;SDS011;319;48.764;9.174;2022-07-22T11:48:50;0.67;;;0.67;;
673;SDS011;319;48.764;9.174;2022-07-22T11:51:18;9.00;;;8.80;;
673;SDS011;319;48.764;9.174;2022-07-22T11:53:46;10.80;;;10.50;;
673;SDS011;319;48.764;9.174;2022-07-22T11:56:13;9.17;;;8.97;;
673;SDS011;319;48.764;9.174;2022-07-22T11:58:41;10.00;;;9.70;;
673;SDS011;319;48.764;9.174;2022-07-22T12:01:10;9.17;;;8.97;;
673;SDS011;319;48.764;9.174;2022-07-22T12:03:39;8.47;;;8.27;;
673;SDS011;319;48.764;9.174;2022-07-22T12:06:07;7.30;;;7.10;;
673;SDS011;319;48.764;9.174;2022-07-22T12:08:39;7.97;;;7.77;;
673;SDS011;319;48.764;9.174;2022-07-22T12:11:10;9.70;;;9.50;;
673;SDS011;319;48.764;9.174;2022-07-22T12:13:40;10.00;;;9.70;;
673;SDS011;319;48.764;9.174;2022-07-22T12:16:18;8.70;;;8.50;;
673;SDS011;319;48.764;9.174;2022-07-22T12:18:50;9.20;;;9.00;;
673;SDS011;319;48.764;9.174;2022-07-22T12:21:22;8.10;;;7.90;;
673;SDS011;319;48.764;9.174;2022-07-22T12:23:50;9.77;;;9.57;;
673;SDS011;319;48.764;9.174;2022-07-22T12:26:19;9.70;;;9.50;;
673;SDS011;319;48.764;9.174;2022-07-22T12:29:17;9.33;;;9.13;;
673;SDS011;319;48.764;9.174;2022-07-22T12:31:46;7.53;;;7.33;;
673;SDS011;319;48.764;9.174;2022-07-22T12:34:14;7.07;;;6.87;;
673;SDS011;319;48.764;9.174;2022-07-22T12:36:45;10.30;;;10.00;;
673;SDS011;319;48.764;9.174;2022-07-22T12:39:17;8.03;;;7.83;;
673;SDS011;319;48.764;9.174;2022-07-22T12:41:49;7.10;;;6.90;;
673;SDS011;319;48.764;9.174;2022-07-22T12:44:17;8.90;;;8.70;;
673;SDS011;319;48.764;9.174;2022-07-22T12:46:45;8.93;;;8.73;;
673;SDS011;319;48.764;9.174;2022-07-22T12:49:14;7.87;;;7.67;;
673;SDS011;319;48.764;9.174;2022-07-22T12:51:42;2.10;;;2.10;;
673;SDS011;319;48.764;9.174;2022-07-22T12:54:36;5.73;;;5.63;;
673;SDS011;319;48.764;9.174;2022-07-22T12:57:06;5.30;;;5.20;;
673;SDS011;319;48.764;9.174;2022-07-22T12:59:34;0.67;;;0.67;;
673;SDS011;319;48.764;9.174;2022-07-22T13:02:01;7.53;;;7.33;;
673;SDS011;319;48.764;9.174;2022-07-22T13:04:29;8.03;;;7.83;;
673;SDS011;319;48.764;9.174;2022-07-22T13:06:56;6.53;;;6.33;;
673;SDS011;319;48.764;9.174;2022-07-22T13:09:23;7.70;;;7.50;;
673;SDS011;319;48.764;9.174;2022-07-22T13:11:50;9.00;;;8.80;;
673;SDS011;319;48.764;9.174;2022-07-22T13:14:18;8.87;;;8.67;;
673;SDS011;319;48.764;9.174;2022-07-22T13:16:45;9.00;;;8.80;;
673;SDS011;319;48.764;9.174;2022-07-22T13:19:12;8.77;;;8.57;;
673;SDS011;319;48.764;9.174;2022-07-22T13:21:38;8.60;;;8.40;;
673;SDS011;319;48.764;9.174;2022-07-22T13:24:06;9.30;;;9.10;;
673;SDS011;319;48.764;9.174;2022-07-22T13:26:41;8.07;;;7.87;;
673;SDS011;319;48.764;9.174;2022-07-22T13:29:07;6.33;;;6.20;;
673;SDS011;319;48.764;9.174;2022-07-22T13:31:36;9.10;;;8.90;;
673;SDS011;319;48.764;9.174;2022-07-22T13:34:03;7.90;;;7.70;;
673;SDS011;319;48.764;9.174;2022-07-22T13:36:30;7.47;;;7.27;;
673;SDS011;319;48.764;9.174;2022-07-22T13:38:58;6.00;;;5.90;;
673;SDS011;319;48.764;9.174;2022-07-22T13:41:26;7.27;;;7.07;;
673;SDS011;319;48.764;9.174;2022-07-22T13:43:53;7.10;;;6.90;;
673;SDS011;319;48.764;9.174;2022-07-22T13:46:20;8.60;;;8.40;;
673;SDS011;319;48.764;9.174;2022-07-22T13:48:48;6.97;;;6.77;;
673;SDS011;319;48.764;9.174;2022-07-22T13:51:16;7.37;;;7.17;;
673;SDS011;319;48.764;9.174;2022-07-22T13:53:44;7.90;;;7.70;;
673;SDS011;319;48.764;9.174;2022-07-22T13:56:10;7.67;;;7.47;;
673;SDS011;319;48.764;9.174;2022-07-22T13:58:37;8.80;;;8.60;;
673;SDS011;319;48.764;9.174;2022-07-22T14:01:05;8.47;;;8.27;;
673;SDS011;319;48.764;9.174;2022-07-22T14:03:32;8.10;;;7.90;;
673;SDS011;319;48.764;9.174;2022-07-22T14:06:00;8.30;;;8.10;;
673;SDS011;319;48.764;9.174;2022-07-22T14:08:27;6.90;;;6.70;;
673;SDS011;319;48.764;9.174;2022-07-22T14:10:54;4.40;;;4.30;;
673;SDS011;319;48.764;9.174;2022-07-22T14:13:21;7.33;;;7.13;;
673;SDS011;319;48.764;9.174;2022-07-22T14:15:48;6.00;;;5.90;;
673;SDS011;319;48.764;9.174;2022-07-22T14:18:14;7.33;;;7.13;;
673;SDS011;319;48.764;9.174;2022-07-22T14:20:41;8.50;;;8.30;;
673;SDS011;319;48.764;9.174;2022-07-22T14:23:09;7.50;;;7.30;;
673;SDS011;319;48.764;9.174;2022-07-22T14:25:36;7.87;;;7.67;;
673;SDS011;319;48.764;9.174;2022-07-22T14:28:04;8.90;;;8.70;;
673;SDS011;319;48.764;9.174;2022-07-22T14:30:32;8.20;;;8.00;;
673;SDS011;319;48.764;9.174;2022-07-22T14:32:59;8.80;;;8.60;;
673;SDS011;319;48.764;9.174;2022-07-22T14:35:26;8.40;;;8.20;;
673;SDS011;319;48.764;9.174;2022-07-22T14:37:53;6.43;;;6.23;;
673;SDS011;319;48.764;9.174;2022-07-22T14:40:21;8.73;;;8.53;;
673;SDS011;319;48.764;9.174;2022-07-22T14:42:48;8.33;;;8.13;;
673;SDS011;319;48.764;9.174;2022-07-22T14:45:15;8.50;;;8.30;;
673;SDS011;319;48.764;9.174;2022-07-22T14:47:42;5.73;;;5.63;;
673;SDS011;319;48.764;9.174;2022-07-22T14:50:10;7.27;;;7.07;;
673;SDS011;319;48.764;9.174;2022-07-22T14:52:36;7.30;;;7.10;;
673;SDS011;319;48.764;9.174;2022-07-22T14:55:04;7.10;;;6.90;;
673;SDS011;319;48.764;9.174;2022-07-22T14:57:32;7.00;;;6.80;;
673;SDS011;319;48.764;9.174;2022-07-22T14:59:59;5.03;;;4.93;;
673;SDS011;319;48.764;9.174;2022-07-22T15:02:26;5.80;;;5.70;;
673;SDS011;319;48.764;9.174;2022-07-22T15:04:52;6.07;;;5.97;;
673;SDS011;319;48.764;9.174;2022-07-22T15:07:19;5.93;;;5.83;;
673;SDS011;319;48.764;9.174;2022-07-22T15:09:46;4.70;;;4.60;;
673;SDS011;319;48.764;9.174;2022-07-22T15:12:13;5.80;;;5.70;;
673;SDS011;319;48.764;9.174;2022-07-22T15:14:41;6.07;;;5.97;;
673;SDS011;319;48.764;9.174;2022-07-22T15:17:08;5.53;;;5.43;;
673;SDS011;319;48.764;9.174;2022-07-22T15:19:35;6.60;;;6.40;;
673;SDS011;319;48.764;9.174;2022-07-22T15:22:01;6.70;;;6.50;;
673;SDS011;319;48.764;9.174;2022-07-22T15:24:28;5.30;;;5.20;;
673;SDS011;319;48.764;9.174;2022-07-22T15:26:55;5.50;;;5.40;;
673;SDS011;319;48.764;9.174;2022-07-22T15:29:22;4.37;;;4.27;;
673;SDS011;319;48.764;9.174;2022-07-22T15:31:50;6.93;;;6.73;;
673;SDS011;319;48.764;9.174;2022-07-22T15:34:17;6.60;;;6.40;;
673;SDS011;319;48.764;9.174;2022-07-22T15:36:44;8.37;;;8.17;;
673;SDS011;319;48.764;9.174;2022-07-22T15:39:11;6.10;;;6.00;;
673;SDS011;319;48.764;9.174;2022-07-22T15:41:38;8.57;;;8.37;;
673;SDS011;319;48.764;9.174;2022-07-22T15:44:06;6.30;;;6.17;;
673;SDS011;319;48.764;9.174;2022-07-22T15:46:33;8.73;;;8.53;;
673;SDS011;319;48.764;9.174;2022-07-22T15:49:02;6.00;;;5.90;;
673;SDS011;319;48.764;9.174;2022-07-22T15:51:29;8.33;;;8.13;;
673;SDS011;319;48.764;9.174;2022-07-22T15:53:55;7.40;;;7.20;;